createdAt,value
2022-12-29T00:00:19.270Z,42.9
2022-12-29T00:01:21.303Z,42.8
2022-12-29T00:02:23.300Z,42.9
2022-12-29T00:03:25.425Z,42.8
2022-12-29T00:04:27.196Z,42.8
2022-12-29T00:05:29.307Z,42.8
2022-12-29T00:06:31.076Z,42.8
2022-12-29T00:07:33.077Z,42.9
2022-12-29T00:08:35.090Z,43
2022-12-29T00:09:37.380Z,42.9
2022-12-29T00:10:39.167Z,43
2022-12-29T00:11:41.367Z,43.2
2022-12-29T00:12:43.217Z,43.4
2022-12-29T00:13:45.226Z,43.2
2022-12-29T00:14:47.118Z,43.3
2022-12-29T00:15:49.092Z,43.2
2022-12-29T00:16:50.004Z,43.3
2022-12-29T00:17:51.317Z,43.1
2022-12-29T00:18:53.131Z,43
2022-12-29T00:19:55.261Z,43.1
2022-12-29T00:20:57.195Z,43.2
2022-12-29T00:21:59.514Z,43.1
2022-12-29T00:23:01.169Z,42.8
2022-12-29T00:24:03.075Z,42.6
2022-12-29T00:25:04.147Z,42.7
2022-12-29T00:26:06.238Z,42.7
2022-12-29T00:27:08.237Z,42.8
2022-12-29T00:28:10.108Z,43.1
2022-12-29T00:29:12.134Z,43.4
2022-12-29T00:30:14.062Z,43.5
2022-12-29T00:31:15.150Z,43.6
2022-12-29T00:32:17.117Z,43.4
2022-12-29T00:33:19.158Z,43.3
2022-12-29T00:34:21.279Z,43.4
2022-12-29T00:35:23.265Z,43.5
2022-12-29T00:36:25.236Z,43.5
2022-12-29T00:37:27.353Z,43.4
2022-12-29T00:38:29.364Z,43.3
2022-12-29T00:39:31.212Z,43.3
2022-12-29T00:40:33.039Z,43.5
2022-12-29T00:41:34.097Z,43.6
2022-12-29T00:42:36.276Z,43.8
2022-12-29T00:43:38.258Z,43.8
2022-12-29T00:44:40.276Z,44
2022-12-29T00:45:42.310Z,44.2
2022-12-29T00:46:44.582Z,45.1
2022-12-29T00:47:46.159Z,44.6
2022-12-29T00:48:48.397Z,44.2
2022-12-29T00:49:50.030Z,44
2022-12-29T00:50:51.117Z,43.9
2022-12-29T00:51:53.237Z,43.8
2022-12-29T00:52:55.039Z,43.6
2022-12-29T00:53:56.136Z,43.5
2022-12-29T00:54:58.176Z,43.3
2022-12-29T00:56:00.273Z,43.2
2022-12-29T00:57:02.175Z,43.1
2022-12-29T00:58:04.077Z,43
2022-12-29T00:59:05.094Z,42.9
2022-12-29T01:00:06.181Z,42.8
2022-12-29T01:01:08.245Z,42.7
2022-12-29T01:02:10.229Z,42.7
2022-12-29T01:03:12.219Z,42.7
2022-12-29T01:04:14.195Z,42.8
2022-12-29T01:05:16.356Z,42.6
2022-12-29T01:06:18.050Z,42.5
2022-12-29T01:07:19.097Z,42.4
2022-12-29T01:08:20.136Z,42.4
2022-12-29T01:09:22.338Z,42.2
2022-12-29T01:10:24.220Z,42.2
2022-12-29T01:11:26.400Z,42.3
2022-12-29T01:12:28.235Z,42.4
2022-12-29T01:13:30.137Z,42.5
2022-12-29T01:14:32.424Z,42.7
2022-12-29T01:15:34.098Z,42.8
2022-12-29T01:16:35.111Z,42.7
2022-12-29T01:17:36.040Z,42.8
2022-12-29T01:18:37.279Z,42.7
2022-12-29T01:19:38.997Z,42.7
2022-12-29T01:20:40.121Z,42.6
2022-12-29T01:21:42.145Z,42.6
2022-12-29T01:22:44.117Z,42.8
2022-12-29T01:23:46.196Z,43
2022-12-29T01:24:48.119Z,43.1
2022-12-29T01:25:50.079Z,43.1
2022-12-29T01:26:51.302Z,43.3
2022-12-29T01:27:53.343Z,43.4
2022-12-29T01:28:55.280Z,43.5
2022-12-29T01:29:57.396Z,43.5
2022-12-29T01:30:59.176Z,43.7
2022-12-29T01:32:01.511Z,43.9
2022-12-29T01:33:03.125Z,45
2022-12-29T01:34:05.142Z,45.2
2022-12-29T01:35:07.402Z,45.2
2022-12-29T01:36:09.337Z,44.6
2022-12-29T01:37:11.277Z,44.1
2022-12-29T01:38:13.103Z,43.9
2022-12-29T01:39:14.161Z,44
2022-12-29T01:40:15.247Z,43.7
2022-12-29T01:41:17.237Z,43.4
2022-12-29T01:42:19.239Z,43.3
2022-12-29T01:43:21.117Z,43
2022-12-29T01:44:22.097Z,42.9
2022-12-29T01:45:23.115Z,42.7
2022-12-29T01:46:25.289Z,42.7
2022-12-29T01:47:27.371Z,42.6
2022-12-29T01:48:29.183Z,42.4
2022-12-29T01:49:31.339Z,42.3
2022-12-29T01:50:33.119Z,42.2
2022-12-29T01:51:34.121Z,42
2022-12-29T01:52:35.060Z,42.2
2022-12-29T01:53:36.177Z,42.1
2022-12-29T01:54:38.418Z,42.1
2022-12-29T01:55:40.076Z,42
2022-12-29T01:56:41.125Z,41.9
2022-12-29T01:57:42.215Z,41.8
2022-12-29T01:58:44.311Z,41.9
2022-12-29T01:59:46.216Z,42
2022-12-29T02:00:48.168Z,41.8
2022-12-29T02:01:49.355Z,41.8
2022-12-29T02:02:51.147Z,41.9
2022-12-29T02:03:52.155Z,42
2022-12-29T02:04:54.319Z,42.1
2022-12-29T02:05:56.193Z,42.1
2022-12-29T02:06:58.236Z,42.1
2022-12-29T02:08:00.202Z,42.1
2022-12-29T02:09:02.139Z,41.8
2022-12-29T02:10:04.177Z,41.9
2022-12-29T02:11:06.196Z,41.4
2022-12-29T02:12:08.319Z,40.8
2022-12-29T02:13:10.184Z,41.4
2022-12-29T02:14:12.136Z,41.5
2022-12-29T02:15:14.149Z,41.4
2022-12-29T02:16:16.649Z,41.3
2022-12-29T02:17:18.287Z,41.3
2022-12-29T02:18:20.131Z,41.3
2022-12-29T02:19:21.196Z,41.4
2022-12-29T02:20:23.345Z,41.2
2022-12-29T02:21:25.279Z,41.3
2022-12-29T02:22:27.217Z,41.1
2022-12-29T02:23:29.126Z,41.2
2022-12-29T02:24:30.127Z,41.1
2022-12-29T02:25:31.165Z,40.9
2022-12-29T02:26:33.182Z,40.9
2022-12-29T02:27:35.076Z,40.9
2022-12-29T02:28:36.184Z,40.9
2022-12-29T02:29:38.416Z,40.8
2022-12-29T02:30:40.208Z,41.1
2022-12-29T02:31:42.188Z,41.2
2022-12-29T02:32:44.302Z,41.4
2022-12-29T02:33:46.155Z,41.5
2022-12-29T02:34:48.099Z,41.8
2022-12-29T02:35:49.178Z,41.9
2022-12-29T02:36:51.236Z,41.9
2022-12-29T02:37:53.291Z,41.9
2022-12-29T02:38:55.295Z,41.9
2022-12-29T02:39:57.123Z,41.9
2022-12-29T02:40:58.259Z,41.9
2022-12-29T02:42:00.296Z,41.9
2022-12-29T02:43:02.159Z,41.9
2022-12-29T02:44:04.364Z,41.9
2022-12-29T02:45:06.198Z,42.2
2022-12-29T02:46:08.377Z,42.3
2022-12-29T02:47:10.155Z,42.7
2022-12-29T02:48:12.154Z,42.4
2022-12-29T02:49:14.217Z,42.8
2022-12-29T02:50:16.135Z,42.8
2022-12-29T02:51:17.176Z,42.9
2022-12-29T02:52:19.199Z,42.9
2022-12-29T02:53:21.156Z,43.1
2022-12-29T02:54:23.496Z,43.6
2022-12-29T02:55:25.251Z,44.1
2022-12-29T02:56:27.375Z,44.3
2022-12-29T02:57:29.139Z,44.5
2022-12-29T02:58:30.195Z,44.6
2022-12-29T02:59:32.203Z,44.4
2022-12-29T03:00:34.314Z,44.4
2022-12-29T03:01:36.339Z,44.3
2022-12-29T03:02:38.497Z,44.1
2022-12-29T03:03:40.255Z,43.4
2022-12-29T03:04:42.348Z,42.7
2022-12-29T03:05:44.354Z,42.4
2022-12-29T03:06:46.196Z,42.5
2022-12-29T03:07:48.196Z,43
2022-12-29T03:08:50.193Z,43.5
2022-12-29T03:09:52.282Z,43.6
2022-12-29T03:10:54.328Z,43.7
2022-12-29T03:11:56.154Z,43
2022-12-29T03:12:57.168Z,43.2
2022-12-29T03:13:58.168Z,43.2
2022-12-29T03:14:59.220Z,43.2
2022-12-29T03:16:01.196Z,42.6
2022-12-29T03:17:03.180Z,42.5
2022-12-29T03:18:04.195Z,42.5
2022-12-29T03:19:06.159Z,42.1
2022-12-29T03:20:07.454Z,41.4
2022-12-29T03:21:09.312Z,41.3
2022-12-29T03:22:11.238Z,40.9
2022-12-29T03:23:13.175Z,40.8
2022-12-29T03:24:15.155Z,40.9
2022-12-29T03:25:16.220Z,40.6
2022-12-29T03:26:18.176Z,40.8
2022-12-29T03:27:20.196Z,40.9
2022-12-29T03:28:22.315Z,41.1
2022-12-29T03:29:24.394Z,41.1
2022-12-29T03:30:26.498Z,41.3
2022-12-29T03:31:28.234Z,41.6
2022-12-29T03:32:30.204Z,41.5
2022-12-29T03:33:32.157Z,42
2022-12-29T03:34:33.226Z,42.1
2022-12-29T03:35:35.233Z,41.7
2022-12-29T03:36:37.287Z,41.6
2022-12-29T03:37:39.314Z,40.9
2022-12-29T03:38:41.357Z,41.4
2022-12-29T03:39:43.362Z,41.7
2022-12-29T03:40:45.240Z,41.2
2022-12-29T03:41:47.193Z,41
2022-12-29T03:42:49.119Z,41
2022-12-29T03:43:50.155Z,41.1
2022-12-29T03:44:51.158Z,41.1
2022-12-29T03:45:53.405Z,41.5
2022-12-29T03:46:55.175Z,41.2
2022-12-29T03:47:56.337Z,40.9
2022-12-29T03:48:58.318Z,40.8
2022-12-29T03:50:00.219Z,40.6
2022-12-29T03:51:02.221Z,39.8
2022-12-29T03:52:04.310Z,40.2
2022-12-29T03:53:06.199Z,40.5
2022-12-29T03:54:08.302Z,40.5
2022-12-29T03:55:10.238Z,40.7
2022-12-29T03:56:12.133Z,41
2022-12-29T03:57:13.300Z,41.6
2022-12-29T03:58:15.229Z,41.9
2022-12-29T03:59:17.217Z,41.9
2022-12-29T04:00:19.169Z,42
2022-12-29T04:01:20.373Z,42.2
2022-12-29T04:02:22.687Z,42.4
2022-12-29T04:03:24.405Z,42.5
2022-12-29T04:04:26.333Z,42.8
2022-12-29T04:05:28.339Z,42.9
2022-12-29T04:06:30.249Z,42.9
2022-12-29T04:07:32.214Z,41.8
2022-12-29T04:08:34.208Z,42.2
2022-12-29T04:09:36.143Z,42
2022-12-29T04:10:37.394Z,42
2022-12-29T04:11:39.344Z,42
2022-12-29T04:12:41.159Z,42.3
2022-12-29T04:13:42.152Z,42.6
2022-12-29T04:14:43.187Z,42.3
2022-12-29T04:15:44.409Z,42.2
2022-12-29T04:16:46.363Z,42.5
2022-12-29T04:17:48.234Z,42.7
2022-12-29T04:18:50.154Z,43.1
2022-12-29T04:19:51.251Z,43
2022-12-29T04:20:53.415Z,43
2022-12-29T04:21:55.385Z,43
2022-12-29T04:22:57.197Z,42.8
2022-12-29T04:23:58.175Z,42.7
2022-12-29T04:24:59.196Z,42.5
2022-12-29T04:26:01.357Z,42.5
2022-12-29T04:27:03.216Z,42.3
2022-12-29T04:28:05.308Z,42.4
2022-12-29T04:29:07.459Z,42.4
2022-12-29T04:30:09.474Z,42.6
2022-12-29T04:31:11.460Z,42.3
2022-12-29T04:32:13.282Z,42.3
2022-12-29T04:33:15.276Z,42.4
2022-12-29T04:34:17.200Z,42.3
2022-12-29T04:35:18.224Z,42.4
2022-12-29T04:36:20.215Z,42.2
2022-12-29T04:37:22.165Z,42.2
2022-12-29T04:38:23.216Z,42.3
2022-12-29T04:39:25.296Z,42.3
2022-12-29T04:40:27.434Z,42.3
2022-12-29T04:41:29.352Z,42.4
2022-12-29T04:42:31.343Z,42.3
2022-12-29T04:43:33.218Z,42.3
2022-12-29T04:44:37.614Z,42.1
2022-12-29T04:45:37.242Z,41.8
2022-12-29T04:46:39.315Z,41.7
2022-12-29T04:47:41.221Z,41.9
2022-12-29T04:48:42.253Z,41.9
2022-12-29T04:49:44.376Z,41.8
2022-12-29T04:50:46.434Z,41.8
2022-12-29T04:51:48.276Z,41.6
2022-12-29T04:52:50.223Z,41.8
2022-12-29T04:53:52.414Z,42
2022-12-29T04:54:54.396Z,42.1
2022-12-29T04:55:56.495Z,42
2022-12-29T04:56:58.158Z,42.4
2022-12-29T04:57:59.298Z,42.9
2022-12-29T04:59:01.274Z,42.8
2022-12-29T05:00:03.269Z,41.7
2022-12-29T05:01:05.255Z,41.5
2022-12-29T05:02:07.513Z,41.2
2022-12-29T05:03:09.640Z,40.9
2022-12-29T05:04:10.195Z,40.7
2022-12-29T05:05:11.179Z,40.7
2022-12-29T05:06:12.184Z,40.4
2022-12-29T05:07:13.320Z,39.9
2022-12-29T05:08:15.598Z,39.7
2022-12-29T05:09:17.275Z,39.4
2022-12-29T05:10:19.256Z,39.4
2022-12-29T05:11:21.177Z,39.4
2022-12-29T05:12:22.196Z,38.8
2022-12-29T05:13:23.197Z,38.6
2022-12-29T05:14:24.223Z,38.5
2022-12-29T05:15:25.217Z,38.4
2022-12-29T05:16:26.275Z,38.3
2022-12-29T05:17:27.246Z,38.4
2022-12-29T05:18:29.429Z,38.1
2022-12-29T05:19:31.460Z,38.5
2022-12-29T05:20:33.279Z,38.6
2022-12-29T05:21:35.253Z,38.5
2022-12-29T05:22:37.414Z,38.5
2022-12-29T05:23:39.346Z,38.4
2022-12-29T05:24:41.431Z,38.2
2022-12-29T05:25:43.276Z,38.3
2022-12-29T05:26:45.255Z,38.3
2022-12-29T05:27:47.198Z,38.6
2022-12-29T05:28:48.218Z,39
2022-12-29T05:29:49.221Z,39.1
2022-12-29T05:30:50.180Z,39.1
2022-12-29T05:31:51.322Z,38.8
2022-12-29T05:32:53.400Z,38.7
2022-12-29T05:33:55.203Z,38.7
2022-12-29T05:34:56.258Z,38.5
2022-12-29T05:35:58.463Z,38.3
2022-12-29T05:37:00.258Z,38.4
2022-12-29T05:38:02.309Z,38.6
2022-12-29T05:39:04.316Z,38.6
2022-12-29T05:40:06.296Z,38.6
2022-12-29T05:41:08.437Z,38.5
2022-12-29T05:42:10.382Z,38.5
2022-12-29T05:43:12.337Z,38.5
2022-12-29T05:44:14.374Z,38.6
2022-12-29T05:45:16.244Z,38.6
2022-12-29T05:46:18.300Z,38.5
2022-12-29T05:47:20.259Z,38.5
2022-12-29T05:48:22.317Z,38.7
2022-12-29T05:49:24.419Z,38.9
2022-12-29T05:50:26.399Z,38.5
2022-12-29T05:51:28.217Z,38.5
2022-12-29T05:52:29.248Z,38.7
2022-12-29T05:53:31.197Z,38.5
2022-12-29T05:54:32.855Z,38.3
2022-12-29T05:55:34.187Z,38.1
2022-12-29T05:56:35.258Z,38
2022-12-29T05:57:37.382Z,38.2
2022-12-29T05:58:39.257Z,37.9
2022-12-29T05:59:41.416Z,38.1
2022-12-29T06:00:43.285Z,38.2
2022-12-29T06:01:45.725Z,38.1
2022-12-29T06:02:50.567Z,37.8
2022-12-29T06:03:52.294Z,37.8
2022-12-29T06:04:54.370Z,37.6
2022-12-29T06:05:56.316Z,37.4
2022-12-29T06:06:58.279Z,37.7
2022-12-29T06:08:00.258Z,37.9
2022-12-29T06:09:02.345Z,37.9
2022-12-29T06:10:04.498Z,37.9
2022-12-29T06:11:06.245Z,37.9
2022-12-29T06:12:07.336Z,38
2022-12-29T06:13:09.351Z,37.9
2022-12-29T06:14:11.256Z,37.3
2022-12-29T06:15:13.497Z,38
2022-12-29T06:16:15.439Z,38.3
2022-12-29T06:17:17.330Z,38.2
2022-12-29T06:18:20.205Z,38.2
2022-12-29T06:19:20.241Z,38
2022-12-29T06:20:21.334Z,38.1
2022-12-29T06:21:23.416Z,38.1
2022-12-29T06:22:25.418Z,38.1
2022-12-29T06:23:27.539Z,38.1
2022-12-29T06:24:29.462Z,38.1
2022-12-29T06:25:31.199Z,38.2
2022-12-29T06:26:32.385Z,38.4
2022-12-29T06:27:34.240Z,38.6
2022-12-29T06:28:35.201Z,38.8
2022-12-29T06:29:36.238Z,38.8
2022-12-29T06:30:37.314Z,38.9
2022-12-29T06:31:39.519Z,39
2022-12-29T06:32:41.388Z,38.8
2022-12-29T06:33:46.143Z,38.7
2022-12-29T06:34:45.543Z,38.5
2022-12-29T06:35:47.513Z,38.4
2022-12-29T06:36:49.401Z,38.5
2022-12-29T06:37:51.340Z,38.5
2022-12-29T06:38:53.713Z,38.6
2022-12-29T06:39:55.585Z,38.9
2022-12-29T06:40:57.362Z,38.9
2022-12-29T06:41:59.377Z,38.9
2022-12-29T06:43:01.539Z,38.8
2022-12-29T06:44:03.263Z,38.9
2022-12-29T06:45:04.338Z,38.8
2022-12-29T06:46:06.471Z,38.6
2022-12-29T06:47:08.359Z,38.5
2022-12-29T06:48:10.296Z,38.5
2022-12-29T06:49:12.276Z,38.4
2022-12-29T06:50:14.345Z,38.4
2022-12-29T06:51:16.518Z,38.3
2022-12-29T06:52:18.353Z,38.3
2022-12-29T06:53:20.369Z,38.3
2022-12-29T06:54:22.281Z,38.1
2022-12-29T06:55:24.308Z,38.3
2022-12-29T06:56:26.495Z,38.4
2022-12-29T06:57:28.386Z,38.6
2022-12-29T06:58:30.376Z,38.5
2022-12-29T06:59:32.477Z,38.4
2022-12-29T07:00:34.231Z,38.5
2022-12-29T07:01:35.910Z,38.6
2022-12-29T07:02:37.424Z,38.6
2022-12-29T07:03:39.557Z,38.8
2022-12-29T07:04:41.297Z,39.1
2022-12-29T07:05:43.678Z,39
2022-12-29T07:06:45.447Z,39
2022-12-29T07:07:47.298Z,38.9
2022-12-29T07:08:49.370Z,39.1
2022-12-29T07:09:51.281Z,38.5
2022-12-29T07:10:52.301Z,38.7
2022-12-29T07:11:54.396Z,38.6
2022-12-29T07:12:56.504Z,38.5
2022-12-29T07:14:05.204Z,38.5
2022-12-29T07:15:00.510Z,38.4
2022-12-29T07:16:02.617Z,38.4
2022-12-29T07:17:04.433Z,38.2
2022-12-29T07:18:06.322Z,38.1
2022-12-29T07:19:08.477Z,37.9
2022-12-29T07:20:10.366Z,37.8
2022-12-29T07:21:13.043Z,37.8
2022-12-29T07:22:14.522Z,38
2022-12-29T07:23:16.421Z,38
2022-12-29T07:24:18.288Z,38.1
2022-12-29T07:25:19.376Z,37.9
2022-12-29T07:26:21.276Z,37.8
2022-12-29T07:27:22.341Z,37.5
2022-12-29T07:28:24.390Z,37.7
2022-12-29T07:29:26.535Z,37.9
2022-12-29T07:30:28.348Z,37.5
2022-12-29T07:31:30.596Z,37.4
2022-12-29T07:32:32.340Z,37.3
2022-12-29T07:33:34.512Z,37.2
2022-12-29T07:34:36.731Z,37.3
2022-12-29T07:35:38.397Z,37.3
2022-12-29T07:36:40.482Z,37.2
2022-12-29T07:37:42.549Z,37.1
2022-12-29T07:38:44.336Z,36.9
2022-12-29T07:39:46.680Z,37.1
2022-12-29T07:40:48.399Z,37.3
2022-12-29T07:41:50.257Z,37.5
2022-12-29T07:42:51.381Z,37.7
2022-12-29T07:43:53.401Z,37.9
2022-12-29T07:44:55.637Z,37.8
2022-12-29T07:45:57.364Z,37.5
2022-12-29T07:46:58.883Z,37.5
2022-12-29T07:48:00.416Z,37.2
2022-12-29T07:49:02.378Z,37
2022-12-29T07:50:04.516Z,37
2022-12-29T07:51:06.958Z,37.2
2022-12-29T07:52:09.017Z,37.2
2022-12-29T07:53:10.486Z,37.4
2022-12-29T07:54:12.495Z,37.7
2022-12-29T07:55:14.407Z,37.8
2022-12-29T07:56:16.391Z,38
2022-12-29T07:57:19.282Z,37.8
2022-12-29T07:58:20.456Z,37.8
2022-12-29T07:59:22.478Z,37.9
2022-12-29T08:00:24.585Z,38
2022-12-29T08:01:26.706Z,38.2
2022-12-29T08:02:28.622Z,38.2
2022-12-29T08:03:30.637Z,38.1
2022-12-29T08:04:32.416Z,38.3
2022-12-29T08:05:34.315Z,38.1
2022-12-29T08:06:36.417Z,37.6
2022-12-29T08:07:38.226Z,37.9
2022-12-29T08:08:39.571Z,38.3
2022-12-29T08:09:41.412Z,38.5
2022-12-29T08:10:43.417Z,38.4
2022-12-29T08:11:45.457Z,38.5
2022-12-29T08:12:47.495Z,38.6
2022-12-29T08:13:49.778Z,38.6
2022-12-29T08:14:51.680Z,38.5
2022-12-29T08:15:53.398Z,38.4
2022-12-29T08:16:55.458Z,38.5
2022-12-29T08:17:57.435Z,38.6
2022-12-29T08:18:59.533Z,38.7
2022-12-29T08:20:01.535Z,38.7
2022-12-29T08:21:03.635Z,38.7
2022-12-29T08:22:05.615Z,38.5
2022-12-29T08:23:07.361Z,38.5
2022-12-29T08:24:09.532Z,38.5
2022-12-29T08:25:11.455Z,38.3
2022-12-29T08:26:13.470Z,38.3
2022-12-29T08:27:20.205Z,38.1
2022-12-29T08:28:17.356Z,38.1
2022-12-29T08:29:19.315Z,38.3
2022-12-29T08:30:20.327Z,38.1
2022-12-29T08:31:22.497Z,38
2022-12-29T08:32:24.468Z,38
2022-12-29T08:33:26.556Z,38.1
2022-12-29T08:34:28.412Z,38.2
2022-12-29T08:35:31.096Z,38
2022-12-29T08:36:32.325Z,37.8
2022-12-29T08:37:34.361Z,37.6
2022-12-29T08:38:36.387Z,37.6
2022-12-29T08:39:38.473Z,37.5
2022-12-29T08:40:40.562Z,37.5
2022-12-29T08:41:42.475Z,37.3
2022-12-29T08:42:44.539Z,37.6
2022-12-29T08:43:46.656Z,37.7
2022-12-29T08:44:48.358Z,37.4
2022-12-29T08:45:50.556Z,37.3
2022-12-29T08:46:52.373Z,37.4
2022-12-29T08:47:53.439Z,37.5
2022-12-29T08:48:55.544Z,37.6
2022-12-29T08:49:57.516Z,37.7
2022-12-29T08:50:59.437Z,37.5
2022-12-29T08:52:01.475Z,37.3
2022-12-29T08:53:03.261Z,37.4
2022-12-29T08:54:04.456Z,37.3
2022-12-29T08:55:06.602Z,37.5
2022-12-29T08:56:08.570Z,37.6
2022-12-29T08:57:10.643Z,37.7
2022-12-29T08:58:12.513Z,38
2022-12-29T08:59:14.418Z,38.4
2022-12-29T09:00:16.435Z,38.3
2022-12-29T09:01:18.746Z,38.4
2022-12-29T09:02:24.543Z,38.5
2022-12-29T09:03:45.845Z,38.5
2022-12-29T09:04:24.550Z,38.3
2022-12-29T09:05:26.384Z,38.4
2022-12-29T09:06:28.194Z,38.2
2022-12-29T09:07:29.485Z,38.4
2022-12-29T09:08:31.576Z,38.7
2022-12-29T09:09:33.454Z,38.7
2022-12-29T09:10:35.259Z,38.9
2022-12-29T09:11:36.312Z,38.6
2022-12-29T09:12:37.273Z,38.6
2022-12-29T09:13:38.957Z,38.7
2022-12-29T09:14:40.436Z,38.8
2022-12-29T09:15:42.601Z,38.9
2022-12-29T09:16:44.286Z,39
2022-12-29T09:17:45.526Z,38.9
2022-12-29T09:18:47.475Z,39.2
2022-12-29T09:19:49.577Z,39.1
2022-12-29T09:20:51.894Z,39
2022-12-29T09:21:53.609Z,38.9
2022-12-29T09:22:55.463Z,39.1
2022-12-29T09:23:57.435Z,39.2
2022-12-29T09:24:59.821Z,39.3
2022-12-29T09:26:02.161Z,39.5
2022-12-29T09:27:03.578Z,39.7
2022-12-29T09:28:05.435Z,39.6
2022-12-29T09:29:07.614Z,39.7
2022-12-29T09:30:09.488Z,39.8
2022-12-29T09:31:11.400Z,39.9
2022-12-29T09:32:17.182Z,39.8
2022-12-29T09:33:14.496Z,39.8
2022-12-29T09:34:16.437Z,39.4
2022-12-29T09:35:18.499Z,39.3
2022-12-29T09:36:20.398Z,39.7
2022-12-29T09:37:22.507Z,39.3
2022-12-29T09:38:24.456Z,39.3
2022-12-29T09:39:26.459Z,39.1
2022-12-29T09:40:28.517Z,38.6
2022-12-29T09:41:30.960Z,38.4
2022-12-29T09:42:32.464Z,38.3
2022-12-29T09:43:34.421Z,38.7
2022-12-29T09:44:36.617Z,38.7
2022-12-29T09:45:38.695Z,38.5
2022-12-29T09:46:40.676Z,38.5
2022-12-29T09:47:42.475Z,38
2022-12-29T09:48:44.489Z,38.3
2022-12-29T09:49:46.935Z,38.1
2022-12-29T09:50:48.415Z,37.8
2022-12-29T09:51:50.395Z,37.5
2022-12-29T09:52:52.417Z,37.5
2022-12-29T09:53:54.455Z,37.5
2022-12-29T09:55:02.304Z,37.4
2022-12-29T09:55:58.439Z,37.3
2022-12-29T09:57:00.526Z,37.3
2022-12-29T09:58:02.541Z,37.3
2022-12-29T09:59:04.395Z,37.2
2022-12-29T10:00:06.428Z,37.5
2022-12-29T10:01:08.705Z,37.3
2022-12-29T10:02:10.652Z,37.2
2022-12-29T10:03:12.697Z,37
2022-12-29T10:04:14.796Z,36.9
2022-12-29T10:05:16.530Z,36.9
2022-12-29T10:06:18.503Z,36.8
2022-12-29T10:07:29.448Z,36.6
2022-12-29T10:08:21.454Z,36.7
2022-12-29T10:09:23.375Z,36.7
2022-12-29T10:10:25.415Z,36.5
2022-12-29T10:11:27.566Z,36.5
2022-12-29T10:12:29.364Z,36.4
2022-12-29T10:13:30.555Z,36.3
2022-12-29T10:14:32.341Z,36.5
2022-12-29T10:15:33.291Z,36.6
2022-12-29T10:16:34.436Z,36.6
2022-12-29T10:17:36.418Z,36.4
2022-12-29T10:18:38.439Z,36.3
2022-12-29T10:19:40.536Z,36.6
2022-12-29T10:20:42.510Z,36.6
2022-12-29T10:21:44.562Z,36.4
2022-12-29T10:22:46.897Z,36.3
2022-12-29T10:23:48.405Z,36.5
2022-12-29T10:24:50.457Z,36.6
2022-12-29T10:25:52.404Z,36.6
2022-12-29T10:26:54.407Z,36.6
2022-12-29T10:27:56.559Z,36.6
2022-12-29T10:28:58.539Z,36.5
2022-12-29T10:30:00.437Z,36.4
2022-12-29T10:31:08.446Z,36.3
2022-12-29T10:32:04.444Z,36.4
2022-12-29T10:33:05.476Z,36.7
2022-12-29T10:34:07.440Z,36.8
2022-12-29T10:35:09.556Z,37.2
2022-12-29T10:36:11.464Z,37.1
2022-12-29T10:37:13.614Z,37
2022-12-29T10:38:15.535Z,36.4
2022-12-29T10:39:17.376Z,36.8
2022-12-29T10:40:19.396Z,36.5
2022-12-29T10:41:21.440Z,37
2022-12-29T10:42:23.684Z,37.3
2022-12-29T10:43:25.888Z,37.1
2022-12-29T10:44:27.519Z,37.5
2022-12-29T10:45:29.565Z,37.4
2022-12-29T10:46:31.649Z,37.6
2022-12-29T10:47:33.432Z,37.4
2022-12-29T10:48:35.474Z,37.4
2022-12-29T10:49:37.451Z,37.6
2022-12-29T10:50:39.490Z,37.4
2022-12-29T10:51:41.388Z,37.4
2022-12-29T10:52:43.526Z,37.2
2022-12-29T10:53:45.547Z,37.1
2022-12-29T10:54:47.700Z,36.9
2022-12-29T10:55:49.451Z,37.3
2022-12-29T10:56:53.145Z,37.1
2022-12-29T10:57:53.677Z,36.9
2022-12-29T10:58:55.881Z,36.7
2022-12-29T10:59:57.430Z,36.6
2022-12-29T11:00:59.468Z,36.4
2022-12-29T11:02:01.838Z,36.2
2022-12-29T11:03:03.808Z,36.4
2022-12-29T11:04:06.037Z,36.4
2022-12-29T11:05:07.828Z,36.1
2022-12-29T11:06:09.897Z,36
2022-12-29T11:07:15.754Z,35.9
2022-12-29T11:08:13.618Z,35.7
2022-12-29T11:09:15.442Z,35.9
2022-12-29T11:10:17.636Z,35.7
2022-12-29T11:11:19.343Z,35.7
2022-12-29T11:12:20.402Z,35.8
2022-12-29T11:13:21.497Z,36.1
2022-12-29T11:14:23.445Z,35.9
2022-12-29T11:15:25.422Z,36
2022-12-29T11:16:27.823Z,36.1
2022-12-29T11:17:29.661Z,36.5
2022-12-29T11:18:31.616Z,36.2
2022-12-29T11:19:37.640Z,36.5
2022-12-29T11:20:36.105Z,36.3
2022-12-29T11:21:38.016Z,36.3
2022-12-29T11:22:40.297Z,36.3
2022-12-29T11:23:41.655Z,36
2022-12-29T11:24:43.930Z,36
2022-12-29T11:25:45.528Z,36.1
2022-12-29T11:26:47.777Z,36.2
2022-12-29T11:27:49.816Z,36
2022-12-29T11:28:52.798Z,36.3
2022-12-29T11:29:54.406Z,36.2
2022-12-29T11:30:55.477Z,36.4
2022-12-29T11:31:57.834Z,36.5
2022-12-29T11:32:59.897Z,36.4
2022-12-29T11:34:01.596Z,36.4
2022-12-29T11:35:04.052Z,36.4
2022-12-29T11:36:05.439Z,36.4
2022-12-29T11:37:07.520Z,36.4
2022-12-29T11:38:09.455Z,36.5
2022-12-29T11:39:13.911Z,36.7
2022-12-29T11:40:13.558Z,36.9
2022-12-29T11:41:15.596Z,36.9
2022-12-29T11:42:17.469Z,36.8
2022-12-29T11:43:19.424Z,36.5
2022-12-29T11:44:21.614Z,36.9
2022-12-29T11:45:23.464Z,37.1
2022-12-29T11:46:25.609Z,37
2022-12-29T11:47:27.520Z,37.2
2022-12-29T11:48:29.496Z,36.9
2022-12-29T11:49:31.574Z,36.9
2022-12-29T11:50:33.507Z,37
2022-12-29T11:51:35.463Z,37.1
2022-12-29T11:52:37.441Z,37
2022-12-29T11:53:39.534Z,37
2022-12-29T11:54:41.579Z,37.2
2022-12-29T11:55:43.487Z,37
2022-12-29T11:56:45.731Z,36.9
2022-12-29T11:57:47.467Z,36.6
2022-12-29T11:58:49.395Z,36.6
2022-12-29T11:59:50.439Z,36.7
2022-12-29T12:00:52.639Z,36.6
2022-12-29T12:01:54.459Z,36.6
2022-12-29T12:02:55.633Z,36.6
2022-12-29T12:03:57.560Z,36.8
2022-12-29T12:04:59.395Z,36.7
2022-12-29T12:06:00.477Z,36.7
2022-12-29T12:07:02.605Z,36.7
2022-12-29T12:08:04.650Z,36.8
2022-12-29T12:09:06.557Z,36.5
2022-12-29T12:10:08.537Z,36.3
2022-12-29T12:11:09.467Z,36.2
2022-12-29T12:12:11.876Z,36.3
2022-12-29T12:13:13.459Z,36.4
2022-12-29T12:14:15.643Z,36.8
2022-12-29T12:15:17.726Z,36.9
2022-12-29T12:16:19.760Z,36.8
2022-12-29T12:17:21.504Z,37
2022-12-29T12:18:23.575Z,37
2022-12-29T12:19:25.474Z,37.1
2022-12-29T12:20:27.606Z,37.3
2022-12-29T12:21:29.691Z,37.2
2022-12-29T12:22:31.555Z,37
2022-12-29T12:23:33.718Z,37.1
2022-12-29T12:24:35.532Z,36.9
2022-12-29T12:25:37.459Z,36.9
2022-12-29T12:26:39.496Z,36.9
2022-12-29T12:27:41.536Z,37
2022-12-29T12:28:43.487Z,37.1
2022-12-29T12:29:46.016Z,37.3
2022-12-29T12:30:47.538Z,36.9
2022-12-29T12:31:49.450Z,36.9
2022-12-29T12:32:50.475Z,36.8
2022-12-29T12:33:52.604Z,36.8
2022-12-29T12:34:54.439Z,36.8
2022-12-29T12:35:55.436Z,37
2022-12-29T12:36:56.483Z,37
2022-12-29T12:37:58.641Z,36.9
2022-12-29T12:39:00.603Z,37
2022-12-29T12:40:02.664Z,36.9
2022-12-29T12:41:04.545Z,37.1
2022-12-29T12:42:06.561Z,37.2
2022-12-29T12:43:08.525Z,37.4
2022-12-29T12:44:10.514Z,37.5
2022-12-29T12:45:12.636Z,37
2022-12-29T12:46:14.684Z,37.1
2022-12-29T12:47:19.417Z,37.3
2022-12-29T12:48:21.499Z,37.3
2022-12-29T12:49:23.522Z,37.4
2022-12-29T12:50:25.596Z,36.6
2022-12-29T12:51:27.876Z,37.2
2022-12-29T12:52:29.800Z,37.5
2022-12-29T12:53:31.639Z,37.2
2022-12-29T12:54:33.464Z,37.1
2022-12-29T12:55:35.517Z,37.3
2022-12-29T12:56:38.057Z,37.4
2022-12-29T12:57:39.413Z,37.5
2022-12-29T12:58:40.615Z,37.6
2022-12-29T12:59:42.908Z,37.3
2022-12-29T13:00:44.655Z,37.5
2022-12-29T13:01:47.784Z,37.8
2022-12-29T13:02:49.762Z,37.3
2022-12-29T13:03:51.539Z,37.5
2022-12-29T13:04:52.538Z,37.3
2022-12-29T13:05:54.433Z,37.2
2022-12-29T13:06:56.664Z,37.1
2022-12-29T13:07:58.619Z,37.1
2022-12-29T13:09:00.609Z,37.2
2022-12-29T13:10:02.734Z,36.9
2022-12-29T13:11:04.477Z,36.6
2022-12-29T13:12:06.836Z,36.6
2022-12-29T13:13:08.731Z,36.8
2022-12-29T13:14:10.536Z,36.6
2022-12-29T13:15:12.619Z,36.3
2022-12-29T13:16:14.958Z,36.3
2022-12-29T13:17:16.616Z,36.3
2022-12-29T13:18:18.647Z,36.6
2022-12-29T13:19:20.717Z,36.9
2022-12-29T13:20:22.462Z,37.2
2022-12-29T13:21:24.419Z,37.2
2022-12-29T13:22:25.637Z,37.2
2022-12-29T13:23:27.557Z,37.2
2022-12-29T13:24:29.754Z,37.2
2022-12-29T13:25:31.684Z,37.2
2022-12-29T13:26:33.535Z,37.2
2022-12-29T13:27:37.717Z,37.2
2022-12-29T13:28:37.516Z,36.9
2022-12-29T13:29:39.512Z,36.8
2022-12-29T13:30:41.618Z,36.8
2022-12-29T13:31:43.669Z,36.7
2022-12-29T13:32:45.598Z,36.6
2022-12-29T13:33:47.797Z,36.5
2022-12-29T13:34:49.619Z,36.4
2022-12-29T13:35:51.654Z,36.4
2022-12-29T13:36:53.500Z,36.4
2022-12-29T13:37:55.681Z,36.5
2022-12-29T13:38:57.636Z,36.6
2022-12-29T13:39:59.689Z,36.2
2022-12-29T13:41:01.616Z,36.7
2022-12-29T13:42:03.761Z,37
2022-12-29T13:43:05.504Z,36.9
2022-12-29T13:44:07.580Z,36.9
2022-12-29T13:45:09.581Z,37
2022-12-29T13:46:11.930Z,36.8
2022-12-29T13:47:13.598Z,36.2
2022-12-29T13:48:15.537Z,36.4